| time (UTC) | temp F | wind direction | speed knots | gust knots | rain 1hr in | rain 24hr in | rain mn in | humidity % | barometer mb |
| 20260507224005 | 54 | 136 | 0.0 | 0.0 | 0.00 | 0.44 | 0.44 | 89 | 1008.8 |
| 20260507223501 | 53 | 133 | 0.0 | 0.0 | 0.00 | 0.44 | 0.44 | 89 | 1008.9 |
| 20260507223329 | 54 | 133 | 0.0 | 0.9 | 0.00 | 0.44 | 0.44 | 89 | 1025.7 |
| 20260507222958 | 53 | 138 | 0.0 | 0.0 | 0.00 | 0.44 | 0.44 | 89 | 1008.8 |
| 20260507222455 | 53 | 136 | 0.0 | 0.0 | 0.00 | 0.44 | 0.44 | 89 | 1008.8 |
| 20260507221951 | 53 | 140 | 0.0 | 0.0 | 0.00 | 0.44 | 0.44 | 89 | 1009.0 |
| 20260507221448 | 53 | 142 | 0.0 | 0.0 | 0.00 | 0.44 | 0.44 | 91 | 1008.9 |
| 20260507220944 | 53 | 129 | 0.0 | 0.0 | 0.00 | 0.44 | 0.44 | 92 | 1008.6 |
| 20260507220442 | 53 | 125 | 0.9 | 0.9 | 0.00 | 0.44 | 0.44 | 93 | 1008.8 |
| 20260507220101 | 55 | 134 | 0.0 | 1.7 | 0.01 | 0.44 | 0.44 | 93 | 1025.2 |
| 20260507215938 | 53 | 134 | 0.0 | 0.0 | 0.00 | 0.44 | 0.44 | 93 | 1008.8 |
| 20260507215435 | 54 | 133 | 0.0 | 0.0 | 0.00 | 0.44 | 0.44 | 93 | 1008.7 |
| 20260507214932 | 54 | 139 | 0.0 | 0.0 | 0.00 | 0.44 | 0.44 | 93 | 1008.4 |
| 20260507214430 | 53 | 140 | 0.0 | 0.0 | 0.00 | 0.44 | 0.44 | 93 | 1008.4 |
| 20260507213926 | 53 | 138 | 0.0 | 0.9 | 0.00 | 0.44 | 0.44 | 92 | 1008.4 |
| 20260507213422 | 54 | 164 | 0.9 | 0.9 | 0.00 | 0.44 | 0.44 | 93 | 1008.5 |
| 20260507212919 | 54 | 133 | 0.0 | 0.0 | 0.00 | 0.44 | 0.44 | 93 | 1008.3 |
| 20260507212415 | 54 | 131 | 0.0 | 0.9 | 0.00 | 0.44 | 0.44 | 93 | 1008.6 |
| 20260507211912 | 54 | 134 | 0.0 | 0.0 | 0.00 | 0.44 | 0.44 | 93 | 1008.4 |
| 20260507211408 | 55 | 126 | 0.0 | 0.0 | 0.00 | 0.44 | 0.44 | 93 | 1008.5 |
| 20260507210905 | 54 | 134 | 0.0 | 0.0 | 0.00 | 0.44 | 0.44 | 92 | 1008.6 |
| 20260507210402 | 54 | 133 | 0.0 | 0.0 | 0.00 | 0.44 | 0.44 | 92 | 1009.0 |
| 20260507210049 | 56 | 145 | 0.0 | 1.7 | 0.01 | 0.43 | 0.43 | 89 | 1025.6 |
| 20260507205859 | 54 | 138 | 0.0 | 0.0 | 0.00 | 0.44 | 0.44 | 91 | 1008.7 |
| 20260507205356 | 54 | 135 | 0.0 | 0.0 | 0.00 | 0.44 | 0.44 | 91 | 1008.7 |
| 20260507204852 | 54 | 134 | 0.0 | 0.0 | 0.00 | 0.44 | 0.44 | 91 | 1008.8 |
| 20260507204349 | 54 | 135 | 0.0 | 0.0 | 0.05 | 0.44 | 0.44 | 91 | 1008.8 |
| 20260507203847 | 55 | 112 | 0.9 | 1.7 | 0.07 | 0.43 | 0.43 | 89 | 1008.8 |
| 20260507203345 | 55 | 142 | 0.0 | 0.0 | 0.07 | 0.43 | 0.43 | 89 | 1008.8 |
| 20260507202840 | 55 | 136 | 0.0 | 0.0 | 0.00 | 0.42 | 0.42 | 87 | 1009.0 |
| 20260507202819 | 57 | 136 | 0.0 | 0.9 | 0.00 | 0.42 | 0.42 | 84 | 1026.1 |
| 20260507202337 | 55 | 130 | 0.0 | 0.0 | 0.00 | 0.42 | 0.42 | 87 | 1009.0 |
| 20260507201833 | 55 | 139 | 0.0 | 0.0 | 0.00 | 0.42 | 0.42 | 84 | 1009.3 |
| 20260507201328 | 55 | 135 | 0.0 | 0.0 | 0.00 | 0.42 | 0.42 | 84 | 1009.0 |
| 20260507200825 | 55 | 129 | 0.0 | 0.9 | 0.00 | 0.42 | 0.42 | 82 | 1008.8 |
| 20260507200321 | 55 | 134 | 0.0 | 0.9 | 0.00 | 0.42 | 0.42 | 84 | 1009.0 |
| 20260507195817 | 55 | 133 | 0.0 | 0.9 | 0.00 | 0.42 | 0.42 | 83 | 1008.9 |
| 20260507195315 | 56 | 131 | 0.0 | 0.0 | 0.00 | 0.42 | 0.42 | 83 | 1008.8 |
| 20260507194812 | 56 | 116 | 0.0 | 1.7 | 0.00 | 0.42 | 0.42 | 84 | 1008.8 |
| 20260507194308 | 56 | 141 | 0.0 | 0.0 | 0.00 | 0.42 | 0.42 | 85 | 1008.9 |
| 20260507193804 | 56 | 133 | 0.0 | 0.0 | 0.00 | 0.42 | 0.42 | 84 | 1008.8 |
| 20260507193302 | 56 | 131 | 0.0 | 0.0 | 0.00 | 0.42 | 0.42 | 84 | 1009.0 |
| 20260507192757 | 56 | 138 | 0.0 | 0.0 | 0.00 | 0.42 | 0.42 | 84 | 1009.0 |
| 20260507192254 | 56 | 129 | 0.0 | 0.9 | 0.00 | 0.42 | 0.42 | 83 | 1008.8 |
| 20260507191750 | 56 | 132 | 0.0 | 0.0 | 0.00 | 0.42 | 0.42 | 79 | 1009.0 |
| 20260507191247 | 56 | 142 | 0.0 | 0.0 | 0.00 | 0.42 | 0.42 | 80 | 1008.9 |
| 20260507190744 | 56 | 134 | 0.0 | 0.0 | 0.00 | 0.42 | 0.42 | 82 | 1009.1 |
| 20260507190243 | 57 | 136 | 0.0 | 0.0 | 0.00 | 0.42 | 0.42 | 83 | 1009.1 |
| 20260507185741 | 56 | 139 | 0.0 | 0.0 | 0.00 | 0.42 | 0.42 | 81 | 1009.1 |
| 20260507185237 | 56 | 137 | 0.0 | 0.0 | 0.00 | 0.42 | 0.42 | 83 | 1009.1 |
| 20260507184735 | 56 | 132 | 0.0 | 0.0 | 0.00 | 0.42 | 0.42 | 83 | 1009.1 |
| 20260507184233 | 56 | 135 | 0.0 | 0.0 | 0.00 | 0.42 | 0.42 | 82 | 1009.2 |
| 20260507183729 | 56 | 157 | 0.0 | 0.0 | 0.00 | 0.42 | 0.42 | 85 | 1009.1 |
| 20260507183327 | 57 | 132 | 0.0 | 1.7 | 0.00 | 0.42 | 0.42 | 84 | 1026.1 |
| 20260507183226 | 56 | 125 | 0.0 | 0.0 | 0.00 | 0.42 | 0.42 | 84 | 1009.1 |
| 20260507182723 | 56 | 130 | 0.0 | 0.0 | 0.00 | 0.42 | 0.42 | 85 | 1009.2 |
| 20260507182218 | 56 | 128 | 0.0 | 0.0 | 0.00 | 0.42 | 0.42 | 85 | 1009.3 |
| 20260507181716 | 56 | 90 | 0.0 | 0.9 | 0.00 | 0.42 | 0.42 | 86 | 1009.2 |
| 20260507181212 | 55 | 140 | 0.0 | 0.0 | 0.00 | 0.42 | 0.42 | 87 | 1009.3 |
| 20260507180710 | 55 | 136 | 0.0 | 0.0 | 0.00 | 0.42 | 0.42 | 86 | 1008.9 |
| 20260507180206 | 55 | 136 | 0.0 | 0.0 | 0.00 | 0.42 | 0.42 | 88 | 1009.3 |
| 20260507175701 | 54 | 135 | 0.0 | 0.0 | 0.00 | 0.42 | 0.42 | 88 | 1009.2 |
| 20260507175158 | 55 | 139 | 0.0 | 0.0 | 0.00 | 0.42 | 0.42 | 87 | 1009.3 |
| 20260507174655 | 55 | 134 | 0.0 | 0.0 | 0.00 | 0.42 | 0.42 | 88 | 1009.4 |
| 20260507174154 | 54 | 130 | 0.0 | 0.0 | 0.00 | 0.42 | 0.42 | 87 | 1009.4 |
| 20260507173651 | 54 | 136 | 0.0 | 0.0 | 0.00 | 0.42 | 0.42 | 89 | 1009.6 |
| 20260507173327 | 55 | 137 | 0.9 | 3.5 | 0.00 | 0.43 | 0.42 | 88 | 1026.4 |
| 20260507173147 | 54 | 131 | 0.0 | 0.0 | 0.00 | 0.42 | 0.42 | 88 | 1009.4 |
| 20260507172644 | 54 | 126 | 0.0 | 0.9 | 0.00 | 0.42 | 0.42 | 88 | 1009.7 |
| 20260507172141 | 54 | 134 | 1.7 | 4.3 | 0.00 | 0.42 | 0.42 | 88 | 1009.8 |
| 20260507171641 | 54 | 132 | 0.0 | 0.9 | 0.00 | 0.42 | 0.42 | 88 | 1009.6 |
| 20260507171139 | 54 | 136 | 0.9 | 0.9 | 0.00 | 0.42 | 0.42 | 90 | 1009.7 |
| 20260507170636 | 54 | 133 | 0.0 | 0.9 | 0.00 | 0.42 | 0.42 | 89 | 1009.7 |
| 20260507170133 | 54 | 131 | 0.0 | 0.9 | 0.00 | 0.42 | 0.42 | 87 | 1009.9 |
| 20260507165628 | 54 | 137 | 0.0 | 0.0 | 0.00 | 0.42 | 0.42 | 88 | 1009.9 |
| 20260507165125 | 53 | 139 | 0.9 | 0.9 | 0.00 | 0.42 | 0.42 | 87 | 1010.0 |
| 20260507164621 | 54 | 127 | 0.0 | 0.9 | 0.00 | 0.42 | 0.42 | 90 | 1010.2 |
| 20260507164118 | 54 | 134 | 0.0 | 1.7 | 0.00 | 0.42 | 0.42 | 88 | 1010.2 |
| 20260507163615 | 54 | 133 | 0.0 | 0.9 | 0.00 | 0.42 | 0.42 | 88 | 1010.4 |
| 20260507163323 | 55 | 99 | 0.9 | 5.2 | 0.00 | 0.43 | 0.42 | 86 | 1027.1 |
| 20260507163113 | 54 | 108 | 0.0 | 1.7 | 0.00 | 0.42 | 0.42 | 88 | 1010.0 |
| 20260507162608 | 54 | 131 | 0.9 | 2.6 | 0.00 | 0.42 | 0.42 | 88 | 1010.3 |
| 20260507162105 | 54 | 133 | 0.0 | 0.9 | 0.00 | 0.42 | 0.42 | 90 | 1010.2 |
| 20260507161601 | 54 | 134 | 0.0 | 0.9 | 0.00 | 0.42 | 0.42 | 91 | 1010.2 |
| 20260507161058 | 54 | 108 | 0.0 | 0.9 | 0.00 | 0.42 | 0.42 | 93 | 1010.1 |
| 20260507160554 | 54 | 128 | 0.0 | 0.9 | 0.00 | 0.42 | 0.42 | 94 | 1010.2 |
| 20260507160051 | 55 | 118 | 0.9 | 0.9 | 0.00 | 0.42 | 0.42 | 95 | 1010.1 |
| 20260507155546 | 54 | 132 | 0.0 | 0.0 | 0.00 | 0.42 | 0.42 | 95 | 1010.3 |
| 20260507155043 | 54 | 133 | 0.0 | 0.0 | 0.00 | 0.42 | 0.42 | 94 | 1010.2 |
| 20260507154540 | 54 | 130 | 0.0 | 0.9 | 0.00 | 0.42 | 0.42 | 94 | 1010.2 |
| 20260507154037 | 54 | 129 | 0.0 | 0.0 | 0.00 | 0.42 | 0.42 | 95 | 1010.3 |
| 20260507153534 | 54 | 134 | 0.0 | 0.0 | 0.00 | 0.42 | 0.42 | 96 | 1010.2 |
| 20260507153323 | 55 | 129 | 0.0 | 1.7 | 0.00 | 0.43 | 0.42 | 96 | 1026.9 |
| 20260507153030 | 55 | 133 | 0.0 | 0.0 | 0.00 | 0.42 | 0.42 | 97 | 1010.0 |
| 20260507152526 | 55 | 137 | 0.0 | 0.9 | 0.00 | 0.42 | 0.42 | 97 | 1010.0 |
| 20260507152023 | 55 | 145 | 0.0 | 0.0 | 0.00 | 0.42 | 0.42 | 98 | 1010.2 |
| 20260507151519 | 56 | 140 | 0.0 | 0.0 | 0.00 | 0.42 | 0.42 | 98 | 1010.3 |
| 20260507151016 | 56 | 133 | 0.0 | 0.0 | 0.00 | 0.42 | 0.42 | 98 | 1010.1 |
| 20260507150513 | 55 | 135 | 0.0 | 0.0 | 0.00 | 0.42 | 0.42 | 98 | 1010.2 |
| 20260507150009 | 55 | 135 | 0.0 | 0.0 | 0.00 | 0.42 | 0.42 | 98 | 1010.0 |
| 20260507145504 | 55 | 131 | 0.9 | 0.9 | 0.00 | 0.42 | 0.42 | 98 | 1010.2 |
| 20260507145002 | 55 | 132 | 0.0 | 0.0 | 0.00 | 0.42 | 0.42 | 98 | 1010.0 |
| 20260507144459 | 55 | 135 | 0.0 | 0.0 | 0.00 | 0.42 | 0.42 | 98 | 1010.0 |
| 20260507143955 | 55 | 135 | 0.0 | 0.0 | 0.00 | 0.42 | 0.42 | 98 | 1009.7 |
| 20260507143453 | 55 | 132 | 0.0 | 0.9 | 0.00 | 0.42 | 0.42 | 98 | 1009.8 |
| 20260507143323 | 56 | 133 | 0.0 | 5.2 | 0.00 | 0.48 | 0.42 | 98 | 1026.9 |
| 20260507142949 | 54 | 133 | 0.0 | 0.9 | 0.00 | 0.42 | 0.42 | 98 | 1009.9 |
| 20260507142445 | 55 | 124 | 0.9 | 0.9 | 0.00 | 0.42 | 0.42 | 98 | 1010.0 |
| 20260507141943 | 55 | 134 | 0.0 | 0.0 | 0.00 | 0.42 | 0.42 | 99 | 1010.2 |
| 20260507141438 | 55 | 131 | 0.0 | 0.0 | 0.00 | 0.42 | 0.42 | 99 | 1010.1 |
| 20260507140936 | 55 | 127 | 0.0 | 0.9 | 0.00 | 0.42 | 0.42 | 99 | 1010.3 |
| 20260507140432 | 55 | 129 | 0.0 | 1.7 | 0.00 | 0.42 | 0.42 | 99 | 1010.2 |
| 20260507135930 | 55 | 131 | 0.9 | 1.7 | 0.00 | 0.42 | 0.42 | 99 | 1010.2 |
| 20260507135427 | 55 | 133 | 0.9 | 2.6 | 0.00 | 0.42 | 0.42 | 99 | 1010.2 |
| 20260507134924 | 55 | 132 | 0.0 | 0.0 | 0.00 | 0.42 | 0.42 | 99 | 1010.2 |
| 20260507134420 | 55 | 130 | 0.0 | 1.7 | 0.00 | 0.42 | 0.42 | 99 | 1010.1 |
| 20260507133916 | 55 | 89 | 0.9 | 4.3 | 0.00 | 0.42 | 0.42 | 99 | 1010.1 |
| 20260507133412 | 56 | 126 | 0.0 | 1.7 | 0.00 | 0.42 | 0.42 | 99 | 1010.0 |
| 20260507133323 | 57 | 126 | 0.0 | 5.2 | 0.00 | 0.49 | 0.42 | 99 | 1026.9 |
| 20260507132911 | 56 | 159 | 0.0 | 0.9 | 0.00 | 0.42 | 0.42 | 99 | 1009.8 |
| 20260507132407 | 56 | 135 | 0.0 | 5.2 | 0.00 | 0.42 | 0.42 | 99 | 1009.8 |
| 20260507131906 | 56 | 131 | 0.0 | 0.9 | 0.00 | 0.42 | 0.42 | 99 | 1009.6 |
| 20260507131401 | 57 | 121 | 0.0 | 1.7 | 0.00 | 0.42 | 0.42 | 99 | 1009.7 |
| 20260507130858 | 57 | 135 | 0.0 | 0.9 | 0.00 | 0.42 | 0.42 | 99 | 1009.7 |
| 20260507130354 | 57 | 78 | 1.7 | 1.7 | 0.00 | 0.42 | 0.42 | 99 | 1009.7 |
| 20260507125854 | 57 | 134 | 0.0 | 0.0 | 0.00 | 0.42 | 0.42 | 99 | 1009.9 |
| 20260507125351 | 57 | 140 | 0.9 | 0.9 | 0.00 | 0.42 | 0.42 | 99 | 1009.9 |
| 20260507124848 | 57 | 132 | 0.0 | 0.9 | 0.00 | 0.42 | 0.42 | 99 | 1010.1 |
| 20260507124344 | 57 | 135 | 0.0 | 0.0 | 0.00 | 0.42 | 0.42 | 99 | 1010.0 |
| 20260507123843 | 57 | 132 | 0.0 | 0.0 | 0.00 | 0.42 | 0.42 | 99 | 1009.7 |
| 20260507123339 | 56 | 133 | 0.0 | 0.0 | 0.00 | 0.42 | 0.42 | 99 | 1009.8 |
| 20260507123323 | 57 | 133 | 0.0 | 1.7 | 0.00 | 0.49 | 0.42 | 99 | 1026.8 |
| 20260507122836 | 57 | 138 | 0.0 | 0.0 | 0.00 | 0.42 | 0.42 | 99 | 1009.7 |
| 20260507122331 | 57 | 139 | 0.0 | 0.9 | 0.00 | 0.42 | 0.42 | 99 | 1009.7 |
| 20260507121828 | 56 | 134 | 0.0 | 0.0 | 0.00 | 0.42 | 0.42 | 99 | 1009.8 |
| 20260507121323 | 57 | 135 | 0.0 | 0.0 | 0.00 | 0.42 | 0.42 | 99 | 1009.6 |
| 20260507120820 | 56 | 133 | 0.0 | 0.0 | 0.00 | 0.42 | 0.42 | 99 | 1009.5 |
| 20260507120316 | 56 | 136 | 0.0 | 0.0 | 0.00 | 0.42 | 0.42 | 99 | 1009.7 |
| 20260507115813 | 56 | 129 | 0.0 | 0.0 | 0.00 | 0.42 | 0.42 | 99 | 1009.7 |
| 20260507115308 | 56 | 134 | 0.0 | 0.0 | 0.00 | 0.42 | 0.42 | 99 | 1009.8 |
| 20260507114804 | 56 | 135 | 0.0 | 0.0 | 0.00 | 0.42 | 0.42 | 99 | 1010.0 |
| 20260507114302 | 56 | 132 | 0.0 | 0.0 | 0.00 | 0.42 | 0.42 | 99 | 1009.7 |
| 20260507113759 | 56 | 134 | 0.0 | 0.0 | 0.00 | 0.42 | 0.42 | 99 | 1009.6 |
| 20260507113323 | 57 | 134 | 0.0 | 2.6 | 0.08 | 0.49 | 0.42 | 99 | 1026.7 |
| 20260507113256 | 56 | 135 | 0.0 | 0.0 | 0.00 | 0.42 | 0.42 | 99 | 1009.9 |
| 20260507112754 | 56 | 137 | 0.0 | 0.0 | 0.05 | 0.42 | 0.42 | 99 | 1009.6 |
| 20260507112250 | 56 | 132 | 0.0 | 0.0 | 0.05 | 0.42 | 0.42 | 99 | 1009.4 |
| 20260507111748 | 56 | 133 | 0.0 | 0.0 | 0.00 | 0.41 | 0.41 | 99 | 1009.4 |
| 20260507111244 | 56 | 128 | 0.0 | 0.0 | 0.07 | 0.41 | 0.41 | 99 | 1009.6 |
| 20260507110741 | 56 | 134 | 0.0 | 0.0 | 0.07 | 0.41 | 0.41 | 99 | 1009.8 |
| 20260507110237 | 56 | 133 | 0.0 | 0.0 | 0.07 | 0.40 | 0.40 | 99 | 1009.7 |
| 20260507105734 | 56 | 128 | 0.0 | 0.0 | 0.12 | 0.40 | 0.40 | 99 | 1009.2 |
| 20260507105230 | 56 | 118 | 0.0 | 0.0 | 0.12 | 0.39 | 0.39 | 99 | 1009.3 |
| 20260507104728 | 56 | 126 | 0.0 | 0.0 | 0.12 | 0.38 | 0.38 | 99 | 1009.1 |
| 20260507104224 | 56 | 122 | 0.9 | 2.6 | 0.12 | 0.37 | 0.37 | 99 | 1009.3 |
| 20260507103720 | 56 | 128 | 0.0 | 0.9 | 0.12 | 0.35 | 0.35 | 99 | 1009.1 |
| 20260507103325 | 57 | 130 | 0.0 | 5.2 | 0.31 | 0.41 | 0.34 | 99 | 1026.0 |
| 20260507103217 | 56 | 104 | 0.9 | 2.6 | 0.19 | 0.34 | 0.34 | 99 | 1009.1 |
| 20260507102713 | 56 | 137 | 0.0 | 1.7 | 0.19 | 0.32 | 0.32 | 99 | 1008.8 |
| 20260507102210 | 57 | 139 | 0.0 | 0.9 | 0.24 | 0.31 | 0.31 | 99 | 1008.9 |
| 20260507101706 | 57 | 127 | 1.7 | 5.2 | 0.26 | 0.28 | 0.28 | 99 | 1009.1 |
| 20260507101201 | 57 | 182 | 1.7 | 4.3 | 0.24 | 0.26 | 0.26 | 99 | 1008.6 |
| 20260507100659 | 57 | 184 | 0.9 | 2.6 | 0.35 | 0.24 | 0.24 | 99 | 1008.8 |
| 20260507100157 | 58 | 133 | 0.9 | 2.6 | 0.50 | 0.21 | 0.21 | 98 | 1009.0 |
| 20260507095655 | 59 | 136 | 1.7 | 5.2 | 0.47 | 0.16 | 0.16 | 98 | 1008.9 |
| 20260507095151 | 59 | 132 | 0.9 | 6.1 | 0.35 | 0.12 | 0.12 | 98 | 1008.7 |
| 20260507094648 | 59 | 135 | 0.9 | 4.3 | 0.24 | 0.08 | 0.08 | 98 | 1008.5 |
| 20260507094144 | 60 | 122 | 0.0 | 1.7 | 0.12 | 0.05 | 0.05 | 97 | 1008.6 |
| 20260507093642 | 60 | 135 | 0.9 | 2.6 | 0.00 | 0.03 | 0.03 | 97 | 1008.7 |
| 20260507093324 | 62 | 137 | 0.0 | 7.0 | 0.03 | 0.10 | 0.03 | 97 | 1025.5 |
| 20260507093141 | 61 | 81 | 0.9 | 0.9 | 0.05 | 0.03 | 0.03 | 96 | 1008.7 |
| 20260507092637 | 62 | 109 | 0.9 | 1.7 | 0.19 | 0.03 | 0.03 | 96 | 1008.7 |
| 20260507092133 | 63 | 88 | 2.6 | 4.3 | 0.14 | 0.02 | 0.02 | 96 | 1008.6 |
| 20260507091630 | 65 | 137 | 0.0 | 1.7 | 0.00 | 0.00 | 0.00 | 97 | 1008.3 |
| 20260507091126 | 66 | 144 | 0.0 | 1.7 | 0.00 | 0.00 | 0.00 | 97 | 1008.0 |
| 20260507090622 | 66 | 129 | 0.0 | 0.9 | 0.00 | 0.00 | 0.00 | 97 | 1008.1 |
| 20260507090119 | 66 | 153 | 0.9 | 0.9 | 0.00 | 0.00 | 0.00 | 97 | 1008.0 |
| 20260507085616 | 66 | 131 | 0.0 | 0.9 | 0.00 | 0.00 | 0.00 | 97 | 1008.1 |
| 20260507085113 | 66 | 120 | 0.0 | 0.9 | 0.00 | 0.00 | 0.00 | 96 | 1008.3 |
| 20260507084610 | 67 | 142 | 0.0 | 0.0 | 0.00 | 0.00 | 0.00 | 96 | 1008.0 |
| 20260507084107 | 67 | 134 | 0.0 | 0.9 | 0.00 | 0.00 | 0.00 | 96 | 1008.1 |
| 20260507083603 | 67 | 134 | 0.0 | 0.9 | 0.00 | 0.00 | 0.00 | 95 | 1007.9 |
| 20260507083325 | 68 | 136 | 0.0 | 1.7 | 0.00 | 0.07 | 0.00 | 95 | 1024.8 |
| 20260507083100 | 67 | 138 | 0.0 | 0.0 | 0.00 | 0.00 | 0.00 | 95 | 1007.8 |
| 20260507082556 | 67 | 141 | 0.0 | 0.0 | 0.00 | 0.00 | 0.00 | 95 | 1007.6 |
| 20260507082052 | 67 | 141 | 0.0 | 0.0 | 0.00 | 0.00 | 0.00 | 95 | 1007.4 |
| 20260507081548 | 67 | 134 | 0.0 | 0.0 | 0.00 | 0.00 | 0.00 | 94 | 1007.2 |
| 20260507081046 | 67 | 141 | 0.0 | 0.0 | 0.00 | 0.00 | 0.00 | 94 | 1007.5 |
| 20260507080542 | 67 | 148 | 0.0 | 0.0 | 0.00 | 0.00 | 0.00 | 94 | 1007.3 |
| 20260507080038 | 67 | 149 | 0.0 | 0.0 | 0.00 | 0.00 | 0.00 | 94 | 1007.0 |
| 20260507075533 | 67 | 147 | 0.0 | 0.0 | 0.00 | 0.00 | 0.00 | 93 | 1007.0 |
| 20260507075030 | 68 | 151 | 0.9 | 1.7 | 0.00 | 0.00 | 0.00 | 93 | 1007.1 |
| 20260507074527 | 68 | 140 | 0.9 | 0.9 | 0.00 | 0.00 | 0.00 | 93 | 1007.1 |
| 20260507074026 | 68 | 180 | 0.9 | 1.7 | 0.00 | 0.00 | 0.00 | 93 | 1007.0 |
| 20260507073521 | 68 | 152 | 0.0 | 0.0 | 0.00 | 0.00 | 0.00 | 92 | 1007.2 |
| 20260507073324 | 69 | 143 | 0.0 | 3.5 | 0.00 | 0.07 | 0.00 | 92 | 1024.3 |
| 20260507073018 | 68 | 147 | 0.0 | 0.0 | 0.00 | 0.00 | 0.00 | 92 | 1007.4 |
| 20260507072515 | 68 | 152 | 0.0 | 1.7 | 0.00 | 0.00 | 0.00 | 92 | 1007.3 |
| 20260507072012 | 68 | 159 | 0.9 | 0.9 | 0.00 | 0.00 | 0.00 | 92 | 1007.5 |
| 20260507071510 | 68 | 203 | 0.9 | 1.7 | 0.00 | 0.00 | 0.00 | 92 | 1007.8 |
| 20260507071006 | 68 | 160 | 0.9 | 1.7 | 0.00 | 0.00 | 0.00 | 92 | 1007.8 |
| 20260507070503 | 68 | 155 | 0.9 | 2.6 | 0.00 | 0.00 | 0.00 | 92 | 1007.7 |
| 20260507070000 | 68 | 151 | 0.0 | 0.9 | 0.00 | 0.00 | 0.00 | 92 | 1007.6 |
| 20260507065456 | 68 | 154 | 0.0 | 0.0 | 0.00 | 0.00 | 0.00 | 92 | 1007.7 |
| 20260507064954 | 68 | 165 | 0.0 | 4.3 | 0.00 | 0.00 | 0.00 | 91 | 1007.4 |
| 20260507064452 | 68 | 169 | 0.9 | 1.7 | 0.00 | 0.00 | 0.00 | 91 | 1007.6 |
| 20260507063950 | 68 | 158 | 0.0 | 0.0 | 0.00 | 0.00 | 0.00 | 91 | 1007.3 |
| 20260507063446 | 68 | 171 | 0.9 | 0.9 | 0.00 | 0.00 | 0.00 | 91 | 1007.4 |
| 20260507063326 | 69 | 162 | 0.9 | 1.7 | 0.00 | 0.07 | 0.00 | 91 | 1024.3 |
| 20260507062943 | 68 | 166 | 1.7 | 1.7 | 0.00 | 0.00 | 0.00 | 91 | 1007.4 |
| 20260507062441 | 68 | 161 | 0.0 | 0.9 | 0.00 | 0.00 | 0.00 | 91 | 1007.4 |
| 20260507061938 | 68 | 148 | 0.0 | 0.9 | 0.00 | 0.00 | 0.00 | 90 | 1007.6 |
| 20260507061436 | 68 | 171 | 0.0 | 0.0 | 0.00 | 0.00 | 0.00 | 90 | 1007.5 |
| 20260507060934 | 68 | 160 | 0.0 | 0.0 | 0.00 | 0.00 | 0.00 | 90 | 1007.4 |
| 20260507060430 | 68 | 158 | 0.0 | 0.0 | 0.00 | 0.00 | 0.00 | 90 | 1007.3 |
| 20260507055927 | 68 | 153 | 0.0 | 0.0 | 0.00 | 0.00 | 0.00 | 90 | 1007.4 |
| 20260507055423 | 68 | 153 | 0.0 | 0.0 | 0.00 | 0.00 | 0.00 | 89 | 1007.5 |
| 20260507054920 | 68 | 158 | 0.0 | 0.9 | 0.00 | 0.00 | 0.00 | 89 | 1007.6 |
| 20260507054416 | 68 | 164 | 0.0 | 0.9 | 0.00 | 0.00 | 0.00 | 90 | 1007.4 |
| 20260507053913 | 68 | 169 | 0.9 | 0.9 | 0.00 | 0.00 | 0.00 | 89 | 1007.6 |
| 20260507053410 | 68 | 159 | 0.9 | 0.9 | 0.00 | 0.00 | 0.00 | 89 | 1007.8 |
| 20260507053324 | 69 | 158 | 0.0 | 5.2 | 0.00 | 0.07 | 0.00 | 89 | 1024.7 |
| 20260507052909 | 69 | 156 | 0.9 | 0.9 | 0.00 | 0.00 | 0.00 | 89 | 1007.8 |
| 20260507052406 | 69 | 175 | 0.9 | 0.9 | 0.00 | 0.00 | 0.00 | 89 | 1007.9 |
| 20260507051903 | 69 | 159 | 0.9 | 1.7 | 0.00 | 0.00 | 0.00 | 89 | 1007.9 |
| 20260507051401 | 69 | 159 | 0.9 | 1.7 | 0.00 | 0.00 | 0.00 | 88 | 1008.2 |
| 20260507050857 | 69 | 224 | 3.5 | 5.2 | 0.00 | 0.00 | 0.00 | 88 | 1008.2 |
| 20260507050354 | 69 | 170 | 0.9 | 1.7 | 0.00 | 0.00 | 0.00 | 88 | 1008.3 |
| 20260507050032 | 70 | 168 | 0.0 | 2.6 | 0.00 | 0.07 | 0.00 | 84 | 1025.6 |
| 20260507045851 | 69 | 146 | 0.0 | 1.7 | 0.00 | 0.00 | 0.00 | 87 | 1008.4 |
| 20260507045347 | 69 | 162 | 0.9 | 0.9 | 0.00 | 0.00 | 0.00 | 86 | 1008.8 |
| 20260507044845 | 69 | 205 | 0.9 | 1.7 | 0.00 | 0.00 | 0.00 | 86 | 1009.1 |
| 20260507044341 | 69 | 168 | 0.0 | 1.7 | 0.00 | 0.00 | 0.00 | 85 | 1008.9 |
| 20260507043837 | 69 | 154 | 0.0 | 1.7 | 0.00 | 0.00 | 0.00 | 84 | 1008.9 |
| 20260507043334 | 69 | 149 | 0.0 | 1.7 | 0.00 | 0.00 | 0.00 | 84 | 1009.0 |
| 20260507042830 | 69 | 156 | 0.0 | 2.6 | 0.00 | 0.00 | 0.00 | 84 | 1008.8 |
| 20260507042326 | 69 | 155 | 0.0 | 0.9 | 0.00 | 0.00 | 0.00 | 84 | 1008.7 |
| 20260507041823 | 69 | 178 | 0.9 | 0.9 | 0.00 | 0.00 | 0.00 | 84 | 1008.9 |
| 20260507041320 | 69 | 152 | 0.9 | 0.9 | 0.00 | 0.00 | 0.00 | 85 | 1008.8 |
| 20260507040817 | 69 | 156 | 0.9 | 1.7 | 0.00 | 0.00 | 0.00 | 85 | 1008.8 |
| 20260507040312 | 68 | 159 | 1.7 | 1.7 | 0.00 | 0.00 | 0.00 | 86 | 1009.0 |
| 20260507035809 | 68 | 149 | 0.0 | 0.9 | 0.00 | 0.07 | 0.07 | 86 | 1008.4 |
| 20260507035306 | 68 | 156 | 0.9 | 0.9 | 0.00 | 0.07 | 0.07 | 87 | 1008.5 |
| 20260507034802 | 68 | 158 | 0.9 | 1.7 | 0.00 | 0.07 | 0.07 | 87 | 1008.7 |
| 20260507034259 | 68 | 151 | 0.0 | 0.9 | 0.00 | 0.07 | 0.07 | 88 | 1008.6 |
| 20260507033757 | 67 | 167 | 0.0 | 0.0 | 0.00 | 0.07 | 0.07 | 88 | 1008.4 |
| 20260507033324 | 68 | 153 | 0.0 | 0.0 | 0.00 | 0.07 | 0.07 | 89 | 1025.3 |
| 20260507033254 | 67 | 150 | 0.0 | 0.0 | 0.00 | 0.07 | 0.07 | 89 | 1008.5 |
| 20260507032751 | 67 | 165 | 0.0 | 0.0 | 0.00 | 0.07 | 0.07 | 90 | 1008.2 |
| 20260507032247 | 67 | 151 | 0.0 | 0.0 | 0.00 | 0.07 | 0.07 | 90 | 1008.4 |
| 20260507031744 | 67 | 149 | 0.0 | 0.0 | 0.00 | 0.07 | 0.07 | 91 | 1008.3 |
| 20260507031241 | 66 | 153 | 0.0 | 0.0 | 0.00 | 0.07 | 0.07 | 91 | 1008.3 |
| 20260507030737 | 66 | 151 | 0.0 | 0.0 | 0.00 | 0.07 | 0.07 | 91 | 1008.3 |
| 20260507030235 | 66 | 153 | 0.0 | 0.0 | 0.00 | 0.07 | 0.07 | 91 | 1008.3 |
| 20260507025732 | 66 | 148 | 0.0 | 0.0 | 0.00 | 0.07 | 0.07 | 91 | 1008.2 |
| 20260507025229 | 67 | 148 | 0.0 | 0.0 | 0.00 | 0.07 | 0.07 | 90 | 1008.3 |
| 20260507024727 | 67 | 148 | 0.0 | 0.0 | 0.00 | 0.07 | 0.07 | 89 | 1008.3 |
| 20260507024224 | 67 | 149 | 0.0 | 0.0 | 0.00 | 0.07 | 0.07 | 89 | 1008.5 |
| 20260507023720 | 67 | 150 | 0.0 | 0.0 | 0.00 | 0.07 | 0.07 | 89 | 1008.5 |
| 20260507023324 | 68 | 150 | 0.0 | 1.7 | 0.00 | 0.07 | 0.07 | 89 | 1025.1 |
| 20260507023217 | 67 | 152 | 0.0 | 0.0 | 0.00 | 0.07 | 0.07 | 89 | 1008.4 |
| 20260507022714 | 67 | 153 | 0.0 | 0.0 | 0.00 | 0.07 | 0.07 | 90 | 1008.6 |
| 20260507022210 | 67 | 150 | 0.0 | 0.9 | 0.00 | 0.07 | 0.07 | 90 | 1008.5 |
| 20260507021706 | 67 | 154 | 0.0 | 0.0 | 0.00 | 0.07 | 0.07 | 90 | 1008.6 |
| 20260507021201 | 67 | 153 | 0.0 | 0.9 | 0.00 | 0.07 | 0.07 | 90 | 1008.5 |
| 20260507020701 | 67 | 149 | 0.0 | 0.0 | 0.00 | 0.07 | 0.07 | 90 | 1008.8 |
| 20260507020156 | 67 | 153 | 0.9 | 0.9 | 0.00 | 0.07 | 0.07 | 91 | 1009.0 |
| 20260507015654 | 66 | 166 | 0.9 | 0.9 | 0.00 | 0.07 | 0.07 | 91 | 1009.2 |
| 20260507015151 | 66 | 153 | 0.0 | 0.0 | 0.00 | 0.07 | 0.07 | 92 | 1008.8 |
| 20260507014648 | 66 | 154 | 0.0 | 0.0 | 0.00 | 0.07 | 0.07 | 92 | 1008.8 |
| 20260507014144 | 66 | 149 | 0.0 | 0.0 | 0.00 | 0.07 | 0.07 | 92 | 1008.9 |
| 20260507013641 | 66 | 150 | 0.0 | 0.0 | 0.00 | 0.07 | 0.07 | 92 | 1008.7 |
| 20260507013324 | 67 | 158 | 0.0 | 0.9 | 0.00 | 0.07 | 0.07 | 91 | 1025.6 |
| 20260507013138 | 66 | 148 | 0.0 | 0.0 | 0.00 | 0.07 | 0.07 | 91 | 1008.6 |
| 20260507012636 | 66 | 151 | 0.0 | 0.0 | 0.00 | 0.07 | 0.07 | 91 | 1008.6 |
| 20260507012131 | 66 | 148 | 0.0 | 0.0 | 0.00 | 0.07 | 0.07 | 90 | 1008.5 |
| 20260507011630 | 67 | 148 | 0.0 | 0.0 | 0.00 | 0.07 | 0.07 | 89 | 1008.5 |
| 20260507011125 | 67 | 146 | 0.0 | 0.0 | 0.00 | 0.07 | 0.07 | 87 | 1008.5 |
| 20260507010620 | 67 | 145 | 0.0 | 0.0 | 0.00 | 0.07 | 0.07 | 87 | 1008.6 |
| 20260507010116 | 68 | 150 | 0.0 | 0.0 | 0.00 | 0.07 | 0.07 | 86 | 1008.6 |
| 20260507005614 | 68 | 151 | 0.0 | 0.0 | 0.00 | 0.07 | 0.07 | 86 | 1008.5 |
| 20260507005110 | 68 | 158 | 0.0 | 0.0 | 0.00 | 0.07 | 0.07 | 86 | 1008.5 |
| 20260507004607 | 68 | 151 | 0.0 | 0.0 | 0.00 | 0.07 | 0.07 | 85 | 1008.3 |
| 20260507004104 | 68 | 157 | 0.0 | 0.0 | 0.00 | 0.07 | 0.07 | 84 | 1008.7 |
| 20260507003600 | 69 | 153 | 0.0 | 0.9 | 0.00 | 0.07 | 0.07 | 84 | 1008.7 |
| 20260507003324 | 70 | 157 | 0.0 | 3.5 | 0.00 | 0.07 | 0.07 | 84 | 1025.3 |
| 20260507003055 | 69 | 158 | 0.0 | 0.0 | 0.00 | 0.07 | 0.07 | 84 | 1008.5 |
| 20260507002552 | 69 | 159 | 0.0 | 0.0 | 0.00 | 0.07 | 0.07 | 83 | 1008.7 |
| 20260507002048 | 69 | 152 | 0.0 | 0.0 | 0.00 | 0.07 | 0.07 | 83 | 1008.5 |
| 20260507001545 | 69 | 161 | 0.0 | 0.9 | 0.00 | 0.07 | 0.07 | 83 | 1008.8 |
| 20260507001042 | 69 | 154 | 0.0 | 0.0 | 0.00 | 0.07 | 0.07 | 83 | 1008.8 |
| 20260507000538 | 69 | 163 | 0.0 | 0.0 | 0.00 | 0.07 | 0.07 | 82 | 1008.8 |
| 20260507000034 | 70 | 152 | 0.0 | 0.0 | 0.00 | 0.07 | 0.07 | 82 | 1008.8 |
| 20260506235532 | 69 | 151 | 0.0 | 1.7 | 0.00 | 0.07 | 0.07 | 82 | 1008.7 |
| 20260506235027 | 69 | 154 | 0.0 | 0.9 | 0.00 | 0.07 | 0.07 | 83 | 1008.4 |
| 20260506234525 | 69 | 157 | 0.0 | 0.0 | 0.00 | 0.07 | 0.07 | 83 | 1008.5 |
| 20260506234022 | 70 | 147 | 0.0 | 0.0 | 0.00 | 0.07 | 0.07 | 84 | 1008.3 |
| 20260506233518 | 70 | 143 | 0.0 | 0.0 | 0.00 | 0.07 | 0.07 | 84 | 1008.2 |
| 20260506233325 | 71 | 146 | 0.0 | 1.7 | 0.00 | 0.07 | 0.07 | 84 | 1025.1 |
| 20260506233015 | 70 | 146 | 0.0 | 0.0 | 0.00 | 0.07 | 0.07 | 84 | 1008.2 |
| 20260506232511 | 71 | 145 | 0.0 | 0.0 | 0.00 | 0.07 | 0.07 | 82 | 1008.3 |
| 20260506232007 | 71 | 147 | 0.0 | 0.0 | 0.00 | 0.07 | 0.07 | 81 | 1008.5 |
| 20260506231505 | 71 | 148 | 0.0 | 0.0 | 0.00 | 0.07 | 0.07 | 81 | 1008.3 |
| 20260506231002 | 71 | 148 | 0.0 | 0.0 | 0.00 | 0.07 | 0.07 | 80 | 1008.6 |
| 20260506230458 | 72 | 149 | 0.0 | 0.0 | 0.00 | 0.07 | 0.07 | 81 | 1008.2 |
| 20260506225955 | 72 | 157 | 0.9 | 0.9 | 0.00 | 0.07 | 0.07 | 79 | 1008.2 |
| 20260506225452 | 72 | 155 | 0.0 | 0.9 | 0.00 | 0.07 | 0.07 | 78 | 1008.4 |
| 20260506224949 | 72 | 153 | 0.0 | 0.9 | 0.00 | 0.07 | 0.07 | 78 | 1008.4 |
| 20260506224446 | 72 | 150 | 0.0 | 0.0 | 0.00 | 0.07 | 0.07 | 78 | 1008.4 |